Time;durP1;ratioP1;P1;durP2;ratioP2;P2;SDS_P1;SDS_P2;PMS_P1;PMS_P2;Temp;Humidity;BMP_temperature;BMP_pressure;BME280_temperature;BME280_humidity;BME280_pressure;Samples;Min_cycle;Max_cycle;Signal;HPM_P1;HPM_P2
2023/11/13 00:00:02;;;;;;;52.73;30.10;;;6.50;99.90;;;;;;4929475;28;40708;-76
2023/11/13 00:02:28;;;;;;;37.77;24.00;;;6.50;99.90;;;;;;4933368;28;37341;-76
2023/11/13 00:04:55;;;;;;;33.23;23.33;;;6.50;99.90;;;;;;4950993;28;38152;-76
2023/11/13 00:07:21;;;;;;;44.13;27.77;;;6.50;99.90;;;;;;4931826;28;36534;-77
2023/11/13 00:09:47;;;;;;;46.03;27.27;;;6.40;99.90;;;;;;4923313;28;37536;-77
2023/11/13 00:12:14;;;;;;;35.17;22.00;;;6.50;99.90;;;;;;4928896;28;37147;-76
2023/11/13 00:14:40;;;;;;;38.20;23.27;;;6.40;99.90;;;;;;4948804;28;38422;-77
2023/11/13 00:17:09;;;;;;;35.03;22.73;;;6.40;99.90;;;;;;4930862;28;37119;-76
2023/11/13 00:19:37;;;;;;;30.37;20.47;;;6.40;99.90;;;;;;4944631;28;39388;-77
2023/11/13 00:22:04;;;;;;;33.30;22.80;;;6.30;99.90;;;;;;4926391;29;39879;-77
2023/11/13 00:24:30;;;;;;;33.67;21.83;;;6.30;99.90;;;;;;4946171;28;38182;-76
2023/11/13 00:26:56;;;;;;;38.83;24.63;;;6.30;99.90;;;;;;4945600;28;37280;-78
2023/11/13 00:29:22;;;;;;;35.93;22.70;;;6.30;99.90;;;;;;4920002;28;37871;-77
2023/11/13 00:31:48;;;;;;;35.53;23.00;;;6.30;99.90;;;;;;4923396;28;37483;-77
2023/11/13 00:34:15;;;;;;;42.73;24.47;;;6.30;99.90;;;;;;4945766;28;38748;-76
2023/11/13 00:36:41;;;;;;;37.73;23.97;;;6.30;99.90;;;;;;4925788;28;36135;-76
2023/11/13 00:39:10;;;;;;;37.57;23.50;;;6.30;99.90;;;;;;4947489;28;38349;-76
2023/11/13 00:41:41;;;;;;;39.57;24.33;;;6.30;99.90;;;;;;4930897;28;38842;-75
2023/11/13 00:44:07;;;;;;;33.23;22.37;;;6.30;99.90;;;;;;4923604;28;36440;-76
2023/11/13 00:46:33;;;;;;;49.57;29.13;;;6.30;99.90;;;;;;4944431;28;37244;-76
2023/11/13 00:48:59;;;;;;;27.27;19.97;;;6.30;99.90;;;;;;4950480;28;38672;-75
2023/11/13 00:51:25;;;;;;;46.57;26.57;;;6.40;99.90;;;;;;4932018;28;37356;-76
2023/11/13 00:53:51;;;;;;;46.43;27.00;;;6.40;99.90;;;;;;4942539;28;38437;-76
2023/11/13 00:56:18;;;;;;;56.83;31.67;;;6.40;99.90;;;;;;4931142;28;36385;-76
2023/11/13 00:58:45;;;;;;;35.93;23.10;;;6.50;99.90;;;;;;4943806;28;37427;-75
2023/11/13 01:01:13;;;;;;;33.63;23.97;;;6.50;99.90;;;;;;4925653;28;38525;-76
2023/11/13 01:03:42;;;;;;;27.13;19.93;;;6.50;99.90;;;;;;4924961;28;37892;-76
2023/11/13 01:06:16;;;;;;;30.80;21.03;;;6.60;99.90;;;;;;4922324;28;36538;-75
2023/11/13 01:08:42;;;;;;;52.10;30.57;;;6.60;99.90;;;;;;4927318;28;37790;-75
2023/11/13 01:11:08;;;;;;;41.43;24.17;;;6.70;99.90;;;;;;4925374;28;37531;-75
2023/11/13 01:13:35;;;;;;;21.97;16.93;;;6.70;99.90;;;;;;4931715;28;38673;-76
2023/11/13 01:16:01;;;;;;;29.83;21.20;;;6.80;99.90;;;;;;4927077;28;34763;-76
2023/11/13 01:18:27;;;;;;;29.23;19.73;;;6.90;99.90;;;;;;4929812;28;46568;-76
2023/11/13 01:20:53;;;;;;;37.43;23.27;;;6.90;99.90;;;;;;4929044;28;37199;-75
2023/11/13 01:23:19;;;;;;;30.13;19.00;;;6.90;99.90;;;;;;4928115;28;36657;-75
2023/11/13 01:25:46;;;;;;;33.10;18.73;;;6.90;99.90;;;;;;4941042;28;38323;-75
2023/11/13 01:28:12;;;;;;;32.37;21.77;;;6.90;99.90;;;;;;4922036;28;37840;-75
2023/11/13 01:30:38;;;;;;;22.90;17.87;;;6.90;99.90;;;;;;4922361;28;38277;-77
2023/11/13 01:33:04;;;;;;;28.33;19.10;;;7.00;99.90;;;;;;4926759;28;37547;-75
2023/11/13 01:35:30;;;;;;;27.40;19.47;;;7.00;99.90;;;;;;4947083;28;37623;-76
2023/11/13 01:37:56;;;;;;;36.43;20.77;;;7.00;99.90;;;;;;4947734;28;39698;-75
2023/11/13 01:40:22;;;;;;;34.30;22.37;;;7.00;99.90;;;;;;4930309;28;38163;-77
2023/11/13 01:42:48;;;;;;;33.53;20.33;;;7.10;99.90;;;;;;4943093;28;38039;-75
2023/11/13 01:45:15;;;;;;;39.73;24.33;;;7.20;99.90;;;;;;4941302;28;36864;-76
2023/11/13 01:47:41;;;;;;;27.00;18.23;;;7.20;99.90;;;;;;4941745;28;39094;-75
2023/11/13 01:50:09;;;;;;;21.77;17.23;;;7.20;99.90;;;;;;4928760;28;37330;-76
2023/11/13 01:52:36;;;;;;;36.10;21.57;;;7.20;99.90;;;;;;4940504;28;37892;-75
2023/11/13 01:55:03;;;;;;;25.57;17.67;;;7.20;99.90;;;;;;4943766;28;36271;-75
2023/11/13 01:57:31;;;;;;;27.63;18.20;;;7.30;99.90;;;;;;4925116;28;39299;-75
2023/11/13 01:59:59;;;;;;;23.07;18.33;;;7.30;99.90;;;;;;4935057;28;38754;-75
2023/11/13 02:02:26;;;;;;;22.80;18.33;;;7.30;99.90;;;;;;5371136;23;39241;-78
2023/11/13 02:04:53;;;;;;;38.10;24.30;;;7.30;99.90;;;;;;4962277;28;36332;-79
2023/11/13 02:07:20;;;;;;;21.97;17.07;;;7.40;99.90;;;;;;4954101;28;37389;-79
2023/11/13 02:09:49;;;;;;;24.20;17.83;;;7.50;99.90;;;;;;4955414;28;38434;-79
2023/11/13 02:12:15;;;;;;;27.33;18.90;;;7.50;99.90;;;;;;4970754;28;39105;-79
2023/11/13 02:14:43;;;;;;;26.13;19.63;;;7.50;99.90;;;;;;4972953;28;37211;-79
2023/11/13 02:17:10;;;;;;;20.07;17.73;;;7.50;99.90;;;;;;4956048;28;37298;-79
2023/11/13 02:19:37;;;;;;;32.57;22.43;;;7.40;99.90;;;;;;4957814;28;38317;-79
2023/11/13 02:22:04;;;;;;;32.60;21.37;;;7.40;99.90;;;;;;4952220;28;36683;-79
2023/11/13 02:24:30;;;;;;;21.43;16.07;;;7.40;99.90;;;;;;4955970;28;37151;-79
2023/11/13 02:26:59;;;;;;;21.83;16.10;;;7.40;99.90;;;;;;4954186;28;39603;-80
2023/11/13 02:29:25;;;;;;;26.23;17.60;;;7.40;99.90;;;;;;4960016;28;38766;-79
2023/11/13 02:31:53;;;;;;;28.87;20.17;;;7.40;99.90;;;;;;4954036;28;37610;-78
2023/11/13 02:34:20;;;;;;;25.73;16.47;;;7.40;99.90;;;;;;4960156;28;38270;-79
2023/11/13 02:36:52;;;;;;;22.73;15.53;;;7.50;99.90;;;;;;4949298;28;37681;-79
2023/11/13 02:39:19;;;;;;;23.33;17.38;;;7.50;99.90;;;;;;4977409;28;38965;-79
2023/11/13 02:41:46;;;;;;;23.50;16.43;;;7.50;99.90;;;;;;4979884;28;37653;-80
2023/11/13 02:44:13;;;;;;;30.47;21.63;;;7.50;99.90;;;;;;4965817;28;38683;-80
2023/11/13 02:46:41;;;;;;;25.53;16.97;;;7.60;99.90;;;;;;4973477;28;38990;-79
2023/11/13 02:49:07;;;;;;;21.53;16.43;;;7.60;99.90;;;;;;4961755;28;39459;-79
2023/11/13 02:51:34;;;;;;;23.70;16.70;;;7.60;99.90;;;;;;4960710;28;36806;-79
2023/11/13 02:54:00;;;;;;;23.87;16.37;;;7.60;99.90;;;;;;4958379;28;36243;-78
2023/11/13 02:56:26;;;;;;;27.83;16.53;;;7.60;99.90;;;;;;4959528;28;40514;-79
2023/11/13 02:58:53;;;;;;;25.47;17.53;;;7.60;99.90;;;;;;4959191;28;39198;-79
2023/11/13 03:01:19;;;;;;;24.50;16.90;;;7.60;99.90;;;;;;4970853;28;38956;-78
2023/11/13 03:03:46;;;;;;;28.97;20.47;;;7.70;99.90;;;;;;4957937;28;37843;-79
2023/11/13 03:06:12;;;;;;;23.03;18.00;;;7.70;99.90;;;;;;4956023;28;40649;-79
2023/11/13 03:08:41;;;;;;;26.07;17.57;;;7.70;99.90;;;;;;4958503;28;38806;-78
2023/11/13 03:11:08;;;;;;;20.73;15.80;;;7.70;99.90;;;;;;4958860;28;37986;-79
2023/11/13 03:13:34;;;;;;;24.07;19.90;;;7.80;99.90;;;;;;4959726;28;37677;-79
2023/11/13 03:16:00;;;;;;;24.47;18.10;;;7.80;99.90;;;;;;4958354;28;37865;-79
2023/11/13 03:18:26;;;;;;;36.50;21.47;;;7.80;99.90;;;;;;4963184;28;40771;-79
2023/11/13 03:20:53;;;;;;;26.30;17.13;;;7.80;99.90;;;;;;4979325;28;38954;-79
2023/11/13 03:23:19;;;;;;;33.57;20.40;;;7.80;99.90;;;;;;4966111;28;36339;-79
2023/11/13 03:25:46;;;;;;;32.33;22.73;;;7.80;99.90;;;;;;4957659;28;37835;-79
2023/11/13 03:28:12;;;;;;;45.90;24.07;;;7.90;99.90;;;;;;4974494;28;39033;-79
2023/11/13 03:30:38;;;;;;;26.90;19.77;;;7.90;99.90;;;;;;4959099;28;37407;-79
2023/11/13 03:33:04;;;;;;;28.97;20.77;;;7.90;99.90;;;;;;4958421;28;36313;-79
2023/11/13 03:35:30;;;;;;;32.10;20.73;;;7.90;99.90;;;;;;4955767;28;39639;-78
2023/11/13 03:37:57;;;;;;;50.73;28.20;;;7.90;99.90;;;;;;4977514;28;37707;-78
2023/11/13 03:40:24;;;;;;;23.57;19.07;;;7.90;99.90;;;;;;4959424;28;38769;-79
2023/11/13 03:42:50;;;;;;;35.80;23.33;;;7.90;99.90;;;;;;4978218;28;37602;-79
2023/11/13 03:45:17;;;;;;;24.13;19.57;;;8.00;99.90;;;;;;4960691;28;39714;-79
2023/11/13 03:47:43;;;;;;;26.33;21.07;;;8.00;99.90;;;;;;4954584;28;39082;-79
2023/11/13 03:50:10;;;;;;;36.30;23.07;;;8.00;99.90;;;;;;4969136;28;37139;-79
2023/11/13 03:52:36;;;;;;;24.63;19.00;;;8.00;99.90;;;;;;4957977;28;38155;-78
2023/11/13 03:55:03;;;;;;;49.37;27.57;;;8.00;99.90;;;;;;4958893;28;37671;-79
2023/11/13 03:57:29;;;;;;;33.57;22.17;;;8.00;99.90;;;;;;4957688;28;47295;-79
2023/11/13 03:59:55;;;;;;;25.73;19.33;;;8.00;99.90;;;;;;4970806;28;38366;-78
2023/11/13 04:02:21;;;;;;;30.73;20.87;;;8.00;99.90;;;;;;4957119;28;37873;-79
2023/11/13 04:04:47;;;;;;;42.27;24.80;;;8.00;99.90;;;;;;4979976;28;38605;-80
2023/11/13 04:07:19;;;;;;;34.47;23.53;;;8.00;99.90;;;;;;4954896;28;39863;-79
2023/11/13 04:09:46;;;;;;;59.22;30.25;;;8.00;99.90;;;;;;4978143;28;38203;-79
2023/11/13 04:12:13;;;;;;;47.57;26.40;;;7.90;99.90;;;;;;4959615;28;39382;-79
2023/11/13 04:14:39;;;;;;;41.80;26.10;;;7.90;99.90;;;;;;4961294;28;38835;-79
2023/11/13 04:17:06;;;;;;;38.43;24.67;;;8.00;99.90;;;;;;4960032;28;37363;-80
2023/11/13 04:19:33;;;;;;;62.93;29.43;;;8.00;99.90;;;;;;4959731;28;37079;-79
2023/11/13 04:22:00;;;;;;;108.73;38.77;;;8.00;99.90;;;;;;4974652;28;38168;-79
2023/11/13 04:24:26;;;;;;;85.53;33.00;;;8.00;99.90;;;;;;4953401;28;38975;-79
2023/11/13 04:26:53;;;;;;;98.80;36.67;;;8.00;99.90;;;;;;4959883;28;39321;-79
2023/11/13 04:29:19;;;;;;;92.83;35.90;;;8.10;99.90;;;;;;4957901;28;38147;-79
2023/11/13 04:31:45;;;;;;;52.20;28.70;;;8.10;99.90;;;;;;4955662;28;38291;-80
2023/11/13 04:34:12;;;;;;;92.10;36.07;;;8.20;99.90;;;;;;4961647;28;37484;-80
2023/11/13 04:36:41;;;;;;;111.53;38.07;;;8.20;99.90;;;;;;4982574;28;38572;-80
2023/11/13 04:39:09;;;;;;;108.73;37.67;;;8.20;99.90;;;;;;4993162;28;38586;-80
2023/11/13 04:41:39;;;;;;;132.93;37.87;;;8.30;99.90;;;;;;4982162;28;38743;-80
2023/11/13 04:44:05;;;;;;;90.67;34.93;;;8.30;99.90;;;;;;4969984;28;38866;-81
2023/11/13 04:46:32;;;;;;;96.80;35.63;;;8.40;99.90;;;;;;4972871;28;37107;-80
2023/11/13 04:48:58;;;;;;;116.80;38.77;;;8.30;99.90;;;;;;4973470;28;40016;-79
2023/11/13 04:51:25;;;;;;;138.47;42.33;;;8.30;99.90;;;;;;4976290;28;36977;-80
2023/11/13 04:53:51;;;;;;;172.53;44.53;;;8.30;99.90;;;;;;4961249;28;38998;-80
2023/11/13 04:56:17;;;;;;;111.53;36.60;;;8.40;99.90;;;;;;4950878;28;37677;-79
2023/11/13 04:58:43;;;;;;;119.40;36.87;;;8.40;99.90;;;;;;4960205;28;37432;-80
2023/11/13 05:01:10;;;;;;;157.07;43.97;;;8.40;99.90;;;;;;4966233;28;37588;-80
2023/11/13 05:03:36;;;;;;;110.43;40.53;;;8.40;99.90;;;;;;4968093;28;39208;-80
2023/11/13 05:06:03;;;;;;;145.23;40.63;;;8.50;99.90;;;;;;4982778;28;37564;-80
2023/11/13 05:08:30;;;;;;;148.97;42.40;;;8.50;99.90;;;;;;4977745;28;38428;-80
2023/11/13 05:11:22;;;;;;;152.83;44.20;;;8.50;99.90;;;;;;4961367;28;36330;-80
2023/11/13 05:13:50;;;;;;;117.03;39.83;;;8.50;99.90;;;;;;4966587;28;47124;-79
2023/11/13 05:16:29;;;;;;;115.40;41.20;;;8.60;99.90;;;;;;4953281;28;38398;-82
2023/11/13 05:18:55;;;;;;;86.23;36.03;;;8.60;99.90;;;;;;4966942;28;37061;-81
2023/11/13 05:21:22;;;;;;;118.20;40.07;;;8.60;99.90;;;;;;4975333;28;39026;-81
2023/11/13 05:23:49;;;;;;;215.73;47.37;;;8.70;99.90;;;;;;4973971;28;38817;-81
2023/11/13 05:26:18;;;;;;;194.83;48.50;;;8.60;99.90;;;;;;4954894;28;39913;-82
2023/11/13 05:28:48;;;;;;;129.13;41.07;;;8.60;99.90;;;;;;4966947;28;37038;-81
2023/11/13 05:31:14;;;;;;;123.37;41.17;;;8.70;99.90;;;;;;4947049;28;36630;-81
2023/11/13 05:33:41;;;;;;;104.00;39.60;;;8.70;99.90;;;;;;4968673;28;39268;-80
2023/11/13 05:36:15;;;;;;;147.40;43.30;;;8.70;99.90;;;;;;4963468;28;37451;-80
2023/11/13 05:38:50;;;;;;;144.17;44.10;;;8.70;99.90;;;;;;4978186;28;37544;-80
2023/11/13 05:41:16;;;;;;;188.67;49.77;;;8.70;99.90;;;;;;4967109;28;36213;-80
2023/11/13 05:43:45;;;;;;;164.67;49.67;;;8.80;99.90;;;;;;4968162;28;38441;-80
2023/11/13 05:46:23;;;;;;;229.37;55.30;;;8.80;99.90;;;;;;4992413;28;38623;-80
2023/11/13 05:49:02;;;;;;;188.43;50.07;;;8.90;99.90;;;;;;4979874;28;38687;-80
2023/11/13 05:51:28;;;;;;;118.40;43.33;;;8.90;99.90;;;;;;4978327;28;49520;-79
2023/11/13 05:53:58;;;;;;;147.47;46.13;;;9.00;99.90;;;;;;4960239;28;38799;-80
2023/11/13 05:56:25;;;;;;;127.50;45.40;;;9.10;99.90;;;;;;4964030;28;38288;-79
2023/11/13 05:58:56;;;;;;;151.17;47.60;;;9.10;99.90;;;;;;4988555;28;38012;-80
2023/11/13 06:01:31;;;;;;;163.53;48.70;;;9.20;99.90;;;;;;4986311;28;38858;-80
2023/11/13 06:03:58;;;;;;;152.27;47.93;;;9.20;99.90;;;;;;4967304;28;36879;-80
2023/11/13 06:06:36;;;;;;;111.90;46.03;;;9.20;99.90;;;;;;4978495;28;38772;-81
2023/11/13 06:09:11;;;;;;;146.40;48.87;;;9.30;99.90;;;;;;4989852;28;39646;-80
2023/11/13 06:11:38;;;;;;;168.30;49.03;;;9.40;99.90;;;;;;4972799;28;39881;-80
2023/11/13 06:14:05;;;;;;;122.87;44.53;;;9.40;99.90;;;;;;4987211;28;40264;-80
2023/11/13 06:16:39;;;;;;;157.87;49.73;;;9.50;99.90;;;;;;4964309;28;39799;-79
2023/11/13 06:19:07;;;;;;;121.33;47.50;;;9.50;99.90;;;;;;4993979;28;37626;-80
2023/11/13 06:21:34;;;;;;;162.87;51.73;;;9.60;99.90;;;;;;4992336;28;38825;-80
2023/11/13 06:24:01;;;;;;;136.13;46.97;;;9.60;99.90;;;;;;4980047;28;39151;-81
2023/11/13 06:26:42;;;;;;;147.23;47.23;;;9.60;99.90;;;;;;4969887;28;48494;-80
2023/11/13 06:29:08;;;;;;;115.40;46.10;;;9.60;99.90;;;;;;4989576;28;37318;-80
2023/11/13 06:31:34;;;;;;;156.33;51.43;;;9.70;99.90;;;;;;4970587;28;37853;-80
2023/11/13 06:34:05;;;;;;;115.30;44.83;;;9.70;99.90;;;;;;4968142;28;39079;-79
2023/11/13 06:36:31;;;;;;;158.40;48.73;;;9.80;99.90;;;;;;4975391;28;47062;-79
2023/11/13 06:38:57;;;;;;;149.90;49.93;;;9.80;99.90;;;;;;4971872;28;37025;-80
2023/11/13 06:41:23;;;;;;;146.30;49.33;;;9.80;99.90;;;;;;4963949;28;36224;-81
2023/11/13 06:43:53;;;;;;;161.03;50.30;;;9.80;99.90;;;;;;4974206;28;38920;-81
2023/11/13 06:46:19;;;;;;;86.93;41.27;;;9.90;99.90;;;;;;4993035;28;38228;-81
2023/11/13 06:48:45;;;;;;;103.50;41.80;;;9.90;99.90;;;;;;4978771;28;38319;-81
2023/11/13 06:51:15;;;;;;;113.37;43.27;;;10.00;99.90;;;;;;4964134;28;37072;-81
2023/11/13 06:53:41;;;;;;;107.07;43.23;;;10.10;99.90;;;;;;4972818;28;37602;-81
2023/11/13 06:56:09;;;;;;;89.80;35.30;;;10.20;99.90;;;;;;4981334;28;37263;-80
2023/11/13 06:58:36;;;;;;;105.77;39.00;;;10.30;99.90;;;;;;4989263;28;39737;-81
2023/11/13 07:01:03;;;;;;;101.03;38.17;;;10.40;99.90;;;;;;4975694;28;38043;-81
2023/11/13 07:03:29;;;;;;;85.27;36.57;;;10.40;99.90;;;;;;4992282;28;40306;-81
2023/11/13 07:05:55;;;;;;;75.97;32.53;;;10.50;99.90;;;;;;4967490;28;37727;-81
2023/11/13 07:08:22;;;;;;;75.83;30.57;;;10.50;99.90;;;;;;4995498;28;39617;-81
2023/11/13 07:10:48;;;;;;;83.30;31.17;;;10.50;99.90;;;;;;4971767;28;36257;-81
2023/11/13 07:13:14;;;;;;;71.10;29.63;;;10.60;99.90;;;;;;4974985;28;37538;-81
2023/11/13 07:15:41;;;;;;;71.77;29.47;;;10.60;99.90;;;;;;4980233;28;37585;-81
2023/11/13 07:18:08;;;;;;;67.80;27.50;;;10.60;99.90;;;;;;4994267;28;39070;-81
2023/11/13 07:20:35;;;;;;;70.90;27.47;;;10.60;99.90;;;;;;4981215;28;38363;-80
2023/11/13 07:23:02;;;;;;;73.77;25.60;;;10.70;99.90;;;;;;4990158;28;41138;-81
2023/11/13 07:25:30;;;;;;;68.60;25.10;;;10.70;99.90;;;;;;4983372;28;48952;-81
2023/11/13 07:27:57;;;;;;;64.17;22.43;;;10.70;99.90;;;;;;4976172;28;36936;-81
2023/11/13 07:30:24;;;;;;;67.67;22.13;;;10.80;99.90;;;;;;4973999;28;37413;-80
2023/11/13 07:32:50;;;;;;;57.23;19.13;;;10.80;99.90;;;;;;4976501;28;39661;-81
2023/11/13 07:35:17;;;;;;;61.73;19.23;;;10.90;99.90;;;;;;4958479;28;37490;-80
2023/11/13 07:37:44;;;;;;;51.60;18.60;;;10.90;99.90;;;;;;4950276;28;38972;-79
2023/11/13 07:40:13;;;;;;;60.83;16.50;;;10.90;99.90;;;;;;4981069;28;38189;-80
2023/11/13 07:42:40;;;;;;;61.43;18.70;;;11.00;99.90;;;;;;4963069;28;39519;-80
2023/11/13 07:45:10;;;;;;;53.10;18.67;;;10.90;99.90;;;;;;4961394;28;37917;-79
2023/11/13 07:47:39;;;;;;;61.07;18.10;;;11.00;99.90;;;;;;4962870;28;38050;-80
2023/11/13 07:50:11;;;;;;;62.13;19.70;;;10.90;99.90;;;;;;4967505;28;37223;-80
2023/11/13 07:52:44;;;;;;;66.78;23.33;;;10.90;99.90;;;;;;4978780;28;48923;-79
2023/11/13 07:55:12;;;;;;;72.20;26.43;;;10.90;99.90;;;;;;4971104;28;39138;-80
2023/11/13 07:57:38;;;;;;;75.77;31.83;;;10.90;99.90;;;;;;4965320;28;37215;-80
2023/11/13 08:00:13;;;;;;;90.83;34.80;;;10.90;99.90;;;;;;4971852;28;36381;-80
2023/11/13 08:02:42;;;;;;;82.43;34.70;;;10.80;99.90;;;;;;4979674;28;38910;-80
2023/11/13 08:05:11;;;;;;;74.67;32.97;;;10.80;99.90;;;;;;4983768;28;38156;-80
2023/11/13 08:07:42;;;;;;;79.57;33.60;;;10.80;99.90;;;;;;4963414;28;37783;-80
2023/11/13 08:10:13;;;;;;;78.97;28.83;;;10.80;99.90;;;;;;4964248;28;36870;-80
2023/11/13 08:12:45;;;;;;;65.17;26.17;;;10.90;99.90;;;;;;4968517;28;38049;-80
2023/11/13 08:15:12;;;;;;;69.78;29.45;;;10.90;99.90;;;;;;4966970;28;37346;-80
2023/11/13 08:17:40;;;;;;;66.03;29.73;;;10.90;99.90;;;;;;4977518;28;38221;-80
2023/11/13 08:20:10;;;;;;;67.53;29.27;;;10.90;99.90;;;;;;4971236;28;37797;-78
2023/11/13 08:22:38;;;;;;;68.30;31.37;;;10.90;99.90;;;;;;4973605;28;39003;-79
2023/11/13 08:25:27;;;;;;;64.77;31.63;;;10.90;99.90;;;;;;4966245;28;38170;-80
2023/11/13 08:27:54;;;;;;;64.30;30.00;;;10.90;99.90;;;;;;4989565;23;39628;-78
2023/11/13 08:30:23;;;;;;;56.00;26.83;;;10.90;99.90;;;;;;4956042;28;37844;-78
2023/11/13 08:32:52;;;;;;;52.60;24.57;;;10.90;99.90;;;;;;4955199;28;37858;-78
2023/11/13 08:35:22;;;;;;;46.07;21.40;;;10.90;99.90;;;;;;4957063;28;38462;-78
2023/11/13 08:37:48;;;;;;;41.00;19.47;;;10.90;99.90;;;;;;4964329;28;38466;-78
2023/11/13 08:40:17;;;;;;;37.23;15.63;;;10.90;99.90;;;;;;4969336;28;37963;-77
2023/11/13 08:42:44;;;;;;;35.63;14.47;;;10.90;99.90;;;;;;4950240;28;37979;-77
2023/11/13 08:45:15;;;;;;;29.20;13.30;;;10.90;99.90;;;;;;4968137;28;39169;-77
2023/11/13 08:47:50;;;;;;;34.63;13.10;;;10.90;99.90;;;;;;4953227;28;37272;-79
2023/11/13 08:50:17;;;;;;;34.70;10.87;;;10.90;99.90;;;;;;4950688;28;36269;-77
2023/11/13 08:52:46;;;;;;;26.20;8.47;;;10.80;99.90;;;;;;4954704;28;37689;-77
2023/11/13 08:55:13;;;;;;;28.97;8.63;;;10.80;99.90;;;;;;4956186;28;37753;-77
2023/11/13 08:57:41;;;;;;;22.67;7.40;;;10.80;99.90;;;;;;4950199;28;38055;-78
2023/11/13 09:00:12;;;;;;;21.20;6.43;;;10.70;99.90;;;;;;4974353;28;38140;-77
2023/11/13 09:02:40;;;;;;;21.63;6.20;;;10.70;99.90;;;;;;4961158;28;39009;-77
2023/11/13 09:05:07;;;;;;;15.73;6.03;;;10.70;99.90;;;;;;4970408;28;37086;-77
2023/11/13 09:07:33;;;;;;;15.37;4.17;;;10.70;99.90;;;;;;4954597;28;37114;-77
2023/11/13 09:10:08;;;;;;;14.93;4.53;;;10.70;99.90;;;;;;4955103;28;36526;-77
2023/11/13 09:12:37;;;;;;;17.60;4.90;;;10.70;99.90;;;;;;4949153;28;46971;-77
2023/11/13 09:15:13;;;;;;;21.17;5.17;;;10.60;99.90;;;;;;4957214;28;37642;-77
2023/11/13 09:17:46;;;;;;;13.27;4.03;;;10.60;99.90;;;;;;4959182;28;47099;-77
2023/11/13 09:20:19;;;;;;;13.17;3.67;;;10.60;99.90;;;;;;4951905;28;35861;-77
2023/11/13 09:22:48;;;;;;;11.60;3.50;;;10.60;99.90;;;;;;4970512;28;38524;-77
2023/11/13 09:25:15;;;;;;;13.13;3.30;;;10.60;99.90;;;;;;4955838;28;37403;-77
2023/11/13 09:27:42;;;;;;;8.97;2.73;;;10.60;99.90;;;;;;4961726;28;37042;-78
2023/11/13 09:30:10;;;;;;;17.50;4.20;;;10.60;99.90;;;;;;4948257;28;36220;-77
2023/11/13 09:32:41;;;;;;;13.00;3.37;;;10.60;99.90;;;;;;4953093;28;46930;-77
2023/11/13 09:35:17;;;;;;;12.47;2.80;;;10.60;99.90;;;;;;4941385;28;38179;-77
2023/11/13 09:37:49;;;;;;;11.20;2.70;;;10.60;99.90;;;;;;4968304;28;38226;-76
2023/11/13 09:40:17;;;;;;;8.70;2.70;;;10.60;99.90;;;;;;4946656;28;37010;-76
2023/11/13 09:42:47;;;;;;;10.37;3.30;;;10.60;99.90;;;;;;4943430;28;39270;-77
2023/11/13 09:45:15;;;;;;;8.87;2.57;;;10.60;99.90;;;;;;4941651;28;37880;-77
2023/11/13 09:47:45;;;;;;;10.57;2.87;;;10.70;99.90;;;;;;4948229;28;38623;-77
2023/11/13 09:50:20;;;;;;;9.82;2.92;;;10.70;99.90;;;;;;4949956;28;39014;-77
2023/11/13 09:52:46;;;;;;;12.57;3.83;;;10.70;99.90;;;;;;4966662;28;38700;-77
2023/11/13 09:55:20;;;;;;;11.37;3.60;;;10.70;99.90;;;;;;4950438;28;37305;-77
2023/11/13 09:57:52;;;;;;;9.90;3.37;;;10.70;99.90;;;;;;4952299;28;37329;-77
2023/11/13 10:00:20;;;;;;;10.10;3.95;;;10.80;99.90;;;;;;4950502;28;35992;-77
2023/11/13 10:02:47;;;;;;;10.50;3.50;;;10.80;99.90;;;;;;4974763;28;39397;-76
2023/11/13 10:05:16;;;;;;;11.40;4.43;;;10.90;99.90;;;;;;4951764;28;37646;-76
2023/11/13 10:07:53;;;;;;;8.50;4.73;;;10.90;99.90;;;;;;4957169;28;36819;-79
2023/11/13 10:10:23;;;;;;;10.63;5.80;;;10.90;99.90;;;;;;4952671;28;36567;-78
2023/11/13 10:12:54;;;;;;;11.50;6.15;;;11.00;99.90;;;;;;4953133;28;37718;-78
2023/11/13 10:15:32;;;;;;;11.23;6.87;;;11.10;99.90;;;;;;4971145;28;38959;-79
2023/11/13 10:18:18;;;;;;;13.00;8.32;;;11.20;99.90;;;;;;4970236;28;38718;-79
2023/11/13 10:20:46;;;;;;;22.67;11.10;;;11.20;99.90;;;;;;4963239;28;47455;-78
2023/11/13 10:23:14;;;;;;;19.63;10.73;;;11.30;99.90;;;;;;4956244;28;37971;-79
2023/11/13 10:25:56;;;;;;;24.10;11.73;;;11.30;99.90;;;;;;4952774;28;38996;-78
2023/11/13 10:28:36;;;;;;;23.17;13.05;;;11.40;99.90;;;;;;4956408;28;36789;-78
2023/11/13 10:31:12;;;;;;;20.50;12.40;;;11.40;99.90;;;;;;4963319;28;36130;-78
2023/11/13 10:33:42;;;;;;;22.67;13.50;;;11.40;99.90;;;;;;4960684;28;39565;-78
2023/11/13 10:36:17;;;;;;;24.42;15.38;;;11.40;99.90;;;;;;4964137;28;37172;-78
2023/11/13 10:38:49;;;;;;;27.60;14.80;;;11.50;99.90;;;;;;4966176;28;37374;-78
2023/11/13 10:41:24;;;;;;;32.30;17.58;;;11.60;99.90;;;;;;4963412;28;36957;-79
2023/11/13 10:43:50;;;;;;;34.60;17.20;;;11.70;99.90;;;;;;4966970;28;37708;-79
2023/11/13 10:46:28;;;;;;;27.65;16.42;;;11.90;99.90;;;;;;4959070;28;37485;-78
2023/11/13 10:48:56;;;;;;;37.35;17.60;;;12.00;99.90;;;;;;4953909;28;37336;-79
2023/11/13 10:51:25;;;;;;;40.78;17.10;;;12.10;99.90;;;;;;4971519;28;37013;-78
2023/11/13 10:53:53;;;;;;;35.15;16.55;;;12.20;99.90;;;;;;4956833;28;37715;-78
2023/11/13 10:56:19;;;;;;;30.08;13.65;;;12.30;99.90;;;;;;4967494;28;37332;-79
2023/11/13 10:58:47;;;;;;;37.05;14.45;;;12.30;99.90;;;;;;4963693;28;37928;-79
2023/11/13 11:01:19;;;;;;;36.67;13.88;;;12.40;99.90;;;;;;4955953;28;37140;-79
2023/11/13 11:03:47;;;;;;;38.92;14.70;;;12.50;99.90;;;;;;4964918;28;38650;-79
2023/11/13 11:06:19;;;;;;;34.25;10.82;;;12.60;99.90;;;;;;4957352;28;38799;-81
2023/11/13 11:08:46;;;;;;;30.05;11.18;;;12.70;99.90;;;;;;4978957;28;38219;-77
2023/11/13 11:11:14;;;;;;;38.22;10.98;;;12.80;99.90;;;;;;4970361;28;36438;-78
2023/11/13 11:13:56;;;;;;;34.40;11.57;;;12.90;99.90;;;;;;4974251;28;39885;-79
2023/11/13 11:16:35;;;;;;;37.03;9.93;;;13.00;99.90;;;;;;4963223;28;37729;-79
2023/11/13 11:19:20;;;;;;;33.25;10.00;;;13.10;99.90;;;;;;4966161;28;37141;-80
2023/11/13 11:22:13;;;;;;;31.65;9.25;;;13.20;99.90;;;;;;4977366;28;47394;-77
2023/11/13 11:24:58;;;;;;;26.67;9.70;;;13.30;99.90;;;;;;4961878;28;47052;-79
2023/11/13 11:27:34;;;;;;;36.33;11.13;;;13.30;99.90;;;;;;4961525;28;38047;-78
2023/11/13 11:30:00;;;;;;;29.27;10.25;;;13.40;99.90;;;;;;4964560;28;38005;-78
2023/11/13 11:32:31;;;;;;;32.47;9.18;;;13.40;99.90;;;;;;4977454;28;38637;-78
2023/11/13 11:35:02;;;;;;;27.98;9.05;;;13.50;99.90;;;;;;4969067;28;39978;-80
2023/11/13 11:37:29;;;;;;;32.33;10.07;;;13.50;99.90;;;;;;4961295;28;37621;-79
2023/11/13 11:40:12;;;;;;;33.47;9.10;;;13.60;99.90;;;;;;4977066;28;38280;-79
2023/11/13 11:42:38;;;;;;;27.45;8.40;;;13.70;99.90;;;;;;4979504;28;49120;-79
2023/11/13 11:45:07;;;;;;;38.38;9.90;;;13.80;99.90;;;;;;4976005;28;39154;-79
2023/11/13 11:47:36;;;;;;;22.42;7.72;;;13.80;99.90;;;;;;4963461;28;47019;-78
2023/11/13 11:50:13;;;;;;;28.42;8.70;;;13.90;99.90;;;;;;4960128;28;39799;-78
2023/11/13 11:52:51;;;;;;;33.97;9.30;;;13.90;99.90;;;;;;4976197;28;48547;-78
2023/11/13 11:55:22;;;;;;;21.88;8.00;;;14.00;99.90;;;;;;4944468;28;37798;-78
2023/11/13 11:57:52;;;;;;;21.83;7.82;;;14.00;99.90;;;;;;4949265;28;37544;-78
2023/11/13 12:00:22;;;;;;;31.50;8.55;;;14.10;99.90;;;;;;4964483;28;37571;-77
2023/11/13 12:02:56;;;;;;;26.48;7.45;;;14.10;99.90;;;;;;4957089;28;36417;-78
2023/11/13 12:05:22;;;;;;;26.50;7.32;;;14.20;99.90;;;;;;4955593;28;38095;-78
2023/11/13 12:07:50;;;;;;;23.02;6.78;;;14.20;99.90;;;;;;4961973;28;37310;-79
2023/11/13 12:10:21;;;;;;;21.08;6.90;;;14.20;99.90;;;;;;4967188;28;38332;-78
2023/11/13 12:12:48;;;;;;;21.75;6.85;;;14.30;99.90;;;;;;4957736;28;35819;-79
2023/11/13 12:15:15;;;;;;;19.08;6.55;;;14.40;99.90;;;;;;4980555;28;39073;-79
2023/11/13 12:17:43;;;;;;;22.48;6.50;;;14.40;99.90;;;;;;4969707;28;37477;-79
2023/11/13 12:20:11;;;;;;;16.05;5.35;;;14.50;99.90;;;;;;4955575;28;36822;-80
2023/11/13 12:22:39;;;;;;;15.88;4.50;;;14.50;99.90;;;;;;4958566;28;37575;-79
2023/11/13 12:25:07;;;;;;;16.75;5.68;;;14.50;99.90;;;;;;4953604;28;38708;-79
2023/11/13 12:27:47;;;;;;;17.75;4.70;;;14.60;99.90;;;;;;4969386;28;38639;-79
2023/11/13 12:30:20;;;;;;;17.35;5.47;;;14.60;99.90;;;;;;4962484;28;38189;-80
2023/11/13 12:32:51;;;;;;;17.15;6.65;;;14.60;99.90;;;;;;4966319;28;38176;-81
2023/11/13 12:35:19;;;;;;;14.93;4.43;;;14.60;99.90;;;;;;4971622;28;39661;-78
2023/11/13 12:37:47;;;;;;;12.35;3.97;;;14.70;99.90;;;;;;4956315;28;37844;-78
2023/11/13 12:40:16;;;;;;;17.73;4.68;;;14.70;99.90;;;;;;4956281;28;37682;-78